sensor_id;sensor_type;location;lat;lon;timestamp;P1;durP1;ratioP1;P2;durP2;ratioP2
64667;SDS011;51077;42.716;23.344;2023-09-19T00:01:28;5.90;;;3.00;;
64667;SDS011;51077;42.716;23.344;2023-09-19T00:03:55;4.53;;;3.20;;
64667;SDS011;51077;42.716;23.344;2023-09-19T00:06:22;3.95;;;2.33;;
64667;SDS011;51077;42.716;23.344;2023-09-19T00:08:51;5.00;;;2.80;;
64667;SDS011;51077;42.716;23.344;2023-09-19T00:11:17;7.07;;;2.95;;
64667;SDS011;51077;42.716;23.344;2023-09-19T00:13:42;5.53;;;2.60;;
64667;SDS011;51077;42.716;23.344;2023-09-19T00:16:11;4.63;;;3.07;;
64667;SDS011;51077;42.716;23.344;2023-09-19T00:18:37;8.73;;;3.30;;
64667;SDS011;51077;42.716;23.344;2023-09-19T00:21:03;5.90;;;2.80;;
64667;SDS011;51077;42.716;23.344;2023-09-19T00:23:32;5.15;;;2.92;;
64667;SDS011;51077;42.716;23.344;2023-09-19T00:25:58;5.23;;;2.77;;
64667;SDS011;51077;42.716;23.344;2023-09-19T00:28:24;5.30;;;3.30;;
64667;SDS011;51077;42.716;23.344;2023-09-19T00:30:50;4.40;;;2.83;;
64667;SDS011;51077;42.716;23.344;2023-09-19T00:33:15;5.53;;;3.23;;
64667;SDS011;51077;42.716;23.344;2023-09-19T00:36:02;5.27;;;3.03;;
64667;SDS011;51077;42.716;23.344;2023-09-19T00:38:29;6.07;;;3.22;;
64667;SDS011;51077;42.716;23.344;2023-09-19T00:40:55;6.97;;;3.40;;
64667;SDS011;51077;42.716;23.344;2023-09-19T00:43:24;4.43;;;2.85;;
64667;SDS011;51077;42.716;23.344;2023-09-19T00:45:52;5.35;;;2.88;;
64667;SDS011;51077;42.716;23.344;2023-09-19T00:48:21;5.63;;;3.22;;
64667;SDS011;51077;42.716;23.344;2023-09-19T00:50:47;7.20;;;3.30;;
64667;SDS011;51077;42.716;23.344;2023-09-19T00:53:15;7.60;;;3.65;;
64667;SDS011;51077;42.716;23.344;2023-09-19T00:55:45;7.15;;;3.17;;
64667;SDS011;51077;42.716;23.344;2023-09-19T00:58:11;8.10;;;3.33;;
64667;SDS011;51077;42.716;23.344;2023-09-19T01:00:37;4.87;;;3.30;;
64667;SDS011;51077;42.716;23.344;2023-09-19T01:03:03;4.45;;;2.90;;
64667;SDS011;51077;42.716;23.344;2023-09-19T01:05:29;6.53;;;3.53;;
64667;SDS011;51077;42.716;23.344;2023-09-19T01:07:55;5.43;;;3.03;;
64667;SDS011;51077;42.716;23.344;2023-09-19T01:10:20;8.27;;;3.97;;
64667;SDS011;51077;42.716;23.344;2023-09-19T01:21:11;9.00;;;3.95;;
64667;SDS011;51077;42.716;23.344;2023-09-19T01:32:16;5.38;;;3.45;;
64667;SDS011;51077;42.716;23.344;2023-09-19T01:34:55;6.43;;;3.42;;
64667;SDS011;51077;42.716;23.344;2023-09-19T01:37:24;5.22;;;3.47;;
64667;SDS011;51077;42.716;23.344;2023-09-19T01:40:04;5.70;;;3.75;;
64667;SDS011;51077;42.716;23.344;2023-09-19T01:48:18;5.78;;;3.65;;
64667;SDS011;51077;42.716;23.344;2023-09-19T01:53:59;5.80;;;3.85;;
64667;SDS011;51077;42.716;23.344;2023-09-19T01:56:40;8.20;;;3.70;;
64667;SDS011;51077;42.716;23.344;2023-09-19T01:59:14;8.18;;;3.70;;
64667;SDS011;51077;42.716;23.344;2023-09-19T02:01:46;7.65;;;3.80;;
64667;SDS011;51077;42.716;23.344;2023-09-19T02:04:14;6.05;;;4.15;;
64667;SDS011;51077;42.716;23.344;2023-09-19T02:06:40;6.73;;;3.40;;
64667;SDS011;51077;42.716;23.344;2023-09-19T02:09:06;9.43;;;3.95;;
64667;SDS011;51077;42.716;23.344;2023-09-19T02:11:32;7.50;;;3.80;;
64667;SDS011;51077;42.716;23.344;2023-09-19T02:13:57;6.33;;;3.90;;
64667;SDS011;51077;42.716;23.344;2023-09-19T02:16:24;5.25;;;3.45;;
64667;SDS011;51077;42.716;23.344;2023-09-19T02:18:49;6.57;;;3.50;;
64667;SDS011;51077;42.716;23.344;2023-09-19T02:21:16;5.68;;;3.78;;
64667;SDS011;51077;42.716;23.344;2023-09-19T02:23:42;6.43;;;3.75;;
64667;SDS011;51077;42.716;23.344;2023-09-19T02:26:08;5.95;;;3.67;;
64667;SDS011;51077;42.716;23.344;2023-09-19T02:28:34;7.77;;;4.30;;
64667;SDS011;51077;42.716;23.344;2023-09-19T02:31:00;6.47;;;3.80;;
64667;SDS011;51077;42.716;23.344;2023-09-19T02:33:26;12.30;;;4.37;;
64667;SDS011;51077;42.716;23.344;2023-09-19T02:35:55;7.10;;;3.67;;
64667;SDS011;51077;42.716;23.344;2023-09-19T02:38:24;6.68;;;3.90;;
64667;SDS011;51077;42.716;23.344;2023-09-19T02:40:53;7.20;;;4.22;;
64667;SDS011;51077;42.716;23.344;2023-09-19T02:43:20;5.53;;;3.92;;
64667;SDS011;51077;42.716;23.344;2023-09-19T02:45:46;6.20;;;4.03;;
64667;SDS011;51077;42.716;23.344;2023-09-19T02:48:11;5.97;;;4.00;;
64667;SDS011;51077;42.716;23.344;2023-09-19T02:50:37;7.23;;;3.97;;
64667;SDS011;51077;42.716;23.344;2023-09-19T02:53:04;7.03;;;4.07;;
64667;SDS011;51077;42.716;23.344;2023-09-19T02:55:29;5.40;;;3.57;;
64667;SDS011;51077;42.716;23.344;2023-09-19T02:57:55;6.63;;;3.47;;
64667;SDS011;51077;42.716;23.344;2023-09-19T03:00:21;7.33;;;3.70;;
64667;SDS011;51077;42.716;23.344;2023-09-19T03:02:50;6.63;;;3.60;;
64667;SDS011;51077;42.716;23.344;2023-09-19T03:05:21;7.53;;;3.83;;
64667;SDS011;51077;42.716;23.344;2023-09-19T03:07:48;7.50;;;4.25;;
64667;SDS011;51077;42.716;23.344;2023-09-19T03:10:15;8.95;;;4.60;;
64667;SDS011;51077;42.716;23.344;2023-09-19T03:12:41;6.22;;;3.97;;
64667;SDS011;51077;42.716;23.344;2023-09-19T03:15:07;7.40;;;4.63;;
64667;SDS011;51077;42.716;23.344;2023-09-19T03:17:36;6.93;;;4.50;;
64667;SDS011;51077;42.716;23.344;2023-09-19T03:20:02;7.03;;;3.97;;
64667;SDS011;51077;42.716;23.344;2023-09-19T03:22:29;8.45;;;5.03;;
64667;SDS011;51077;42.716;23.344;2023-09-19T03:24:55;7.43;;;4.17;;
64667;SDS011;51077;42.716;23.344;2023-09-19T03:27:20;6.90;;;4.00;;
64667;SDS011;51077;42.716;23.344;2023-09-19T03:29:46;5.73;;;3.63;;
64667;SDS011;51077;42.716;23.344;2023-09-19T03:32:12;6.15;;;3.95;;
64667;SDS011;51077;42.716;23.344;2023-09-19T03:34:39;10.95;;;4.45;;
64667;SDS011;51077;42.716;23.344;2023-09-19T03:37:08;7.25;;;4.35;;
64667;SDS011;51077;42.716;23.344;2023-09-19T03:39:34;7.57;;;4.18;;
64667;SDS011;51077;42.716;23.344;2023-09-19T03:42:00;6.10;;;3.83;;
64667;SDS011;51077;42.716;23.344;2023-09-19T03:44:26;6.45;;;4.05;;
64667;SDS011;51077;42.716;23.344;2023-09-19T03:46:51;7.87;;;3.97;;
64667;SDS011;51077;42.716;23.344;2023-09-19T03:49:16;6.77;;;3.60;;
64667;SDS011;51077;42.716;23.344;2023-09-19T03:51:42;6.23;;;3.97;;
64667;SDS011;51077;42.716;23.344;2023-09-19T03:54:07;6.27;;;4.00;;
64667;SDS011;51077;42.716;23.344;2023-09-19T03:56:33;7.93;;;4.27;;
64667;SDS011;51077;42.716;23.344;2023-09-19T03:58:58;9.60;;;4.03;;
64667;SDS011;51077;42.716;23.344;2023-09-19T04:01:24;5.53;;;4.10;;
64667;SDS011;51077;42.716;23.344;2023-09-19T04:03:49;6.70;;;4.60;;
64667;SDS011;51077;42.716;23.344;2023-09-19T04:06:16;6.68;;;4.03;;
64667;SDS011;51077;42.716;23.344;2023-09-19T04:08:42;5.60;;;3.60;;
64667;SDS011;51077;42.716;23.344;2023-09-19T04:11:09;6.50;;;4.25;;
64667;SDS011;51077;42.716;23.344;2023-09-19T04:13:35;7.22;;;4.00;;
64667;SDS011;51077;42.716;23.344;2023-09-19T04:16:01;6.38;;;4.05;;
64667;SDS011;51077;42.716;23.344;2023-09-19T04:18:27;6.72;;;3.95;;
64667;SDS011;51077;42.716;23.344;2023-09-19T04:20:52;6.83;;;4.17;;
64667;SDS011;51077;42.716;23.344;2023-09-19T04:23:18;6.82;;;4.03;;
64667;SDS011;51077;42.716;23.344;2023-09-19T04:25:47;5.20;;;4.00;;
64667;SDS011;51077;42.716;23.344;2023-09-19T04:28:13;6.90;;;4.00;;
64667;SDS011;51077;42.716;23.344;2023-09-19T04:30:39;5.47;;;3.65;;
64667;SDS011;51077;42.716;23.344;2023-09-19T04:33:08;5.07;;;3.60;;
64667;SDS011;51077;42.716;23.344;2023-09-19T04:35:33;9.83;;;4.27;;
64667;SDS011;51077;42.716;23.344;2023-09-19T04:38:00;7.13;;;4.35;;
64667;SDS011;51077;42.716;23.344;2023-09-19T04:40:25;6.10;;;3.83;;
64667;SDS011;51077;42.716;23.344;2023-09-19T04:42:54;7.32;;;3.97;;
64667;SDS011;51077;42.716;23.344;2023-09-19T04:45:23;7.10;;;3.70;;
64667;SDS011;51077;42.716;23.344;2023-09-19T04:47:49;10.57;;;4.38;;
64667;SDS011;51077;42.716;23.344;2023-09-19T04:50:14;8.40;;;4.80;;
64667;SDS011;51077;42.716;23.344;2023-09-19T04:52:42;7.28;;;4.45;;
64667;SDS011;51077;42.716;23.344;2023-09-19T04:55:15;7.72;;;4.43;;
64667;SDS011;51077;42.716;23.344;2023-09-19T04:57:42;12.15;;;5.03;;
64667;SDS011;51077;42.716;23.344;2023-09-19T05:00:09;7.88;;;4.32;;
64667;SDS011;51077;42.716;23.344;2023-09-19T05:02:39;4.97;;;4.03;;
64667;SDS011;51077;42.716;23.344;2023-09-19T05:05:06;9.93;;;4.40;;
64667;SDS011;51077;42.716;23.344;2023-09-19T05:07:33;9.50;;;4.40;;
64667;SDS011;51077;42.716;23.344;2023-09-19T05:09:59;7.90;;;4.43;;
64667;SDS011;51077;42.716;23.344;2023-09-19T05:12:25;9.33;;;3.87;;
64667;SDS011;51077;42.716;23.344;2023-09-19T05:14:52;10.63;;;3.63;;
64667;SDS011;51077;42.716;23.344;2023-09-19T05:17:17;6.57;;;4.20;;
64667;SDS011;51077;42.716;23.344;2023-09-19T05:19:43;8.10;;;4.40;;
64667;SDS011;51077;42.716;23.344;2023-09-19T05:22:08;6.90;;;4.23;;
64667;SDS011;51077;42.716;23.344;2023-09-19T05:24:34;9.83;;;4.13;;
64667;SDS011;51077;42.716;23.344;2023-09-19T05:26:59;9.87;;;4.00;;
64667;SDS011;51077;42.716;23.344;2023-09-19T05:29:25;7.57;;;3.38;;
64667;SDS011;51077;42.716;23.344;2023-09-19T05:31:51;9.87;;;3.70;;
64667;SDS011;51077;42.716;23.344;2023-09-19T05:34:16;7.13;;;3.23;;
64667;SDS011;51077;42.716;23.344;2023-09-19T05:36:41;11.87;;;4.53;;
64667;SDS011;51077;42.716;23.344;2023-09-19T05:39:08;15.65;;;4.55;;
64667;SDS011;51077;42.716;23.344;2023-09-19T05:41:35;10.88;;;3.80;;
64667;SDS011;51077;42.716;23.344;2023-09-19T05:44:02;8.98;;;3.78;;
64667;SDS011;51077;42.716;23.344;2023-09-19T05:46:28;6.43;;;3.35;;
64667;SDS011;51077;42.716;23.344;2023-09-19T05:48:55;9.23;;;3.63;;
64667;SDS011;51077;42.716;23.344;2023-09-19T05:51:21;7.30;;;3.60;;
64667;SDS011;51077;42.716;23.344;2023-09-19T05:53:48;5.70;;;3.30;;
64667;SDS011;51077;42.716;23.344;2023-09-19T05:56:13;5.60;;;3.37;;
64667;SDS011;51077;42.716;23.344;2023-09-19T05:58:40;6.55;;;3.60;;
64667;SDS011;51077;42.716;23.344;2023-09-19T06:01:08;7.57;;;3.88;;
64667;SDS011;51077;42.716;23.344;2023-09-19T06:03:34;7.97;;;3.72;;
64667;SDS011;51077;42.716;23.344;2023-09-19T06:06:00;6.60;;;3.40;;
64667;SDS011;51077;42.716;23.344;2023-09-19T06:08:29;5.70;;;3.30;;
64667;SDS011;51077;42.716;23.344;2023-09-19T06:10:56;5.97;;;3.20;;
64667;SDS011;51077;42.716;23.344;2023-09-19T06:13:21;4.63;;;2.90;;
64667;SDS011;51077;42.716;23.344;2023-09-19T06:15:47;8.00;;;3.53;;
64667;SDS011;51077;42.716;23.344;2023-09-19T06:18:12;7.97;;;2.93;;
64667;SDS011;51077;42.716;23.344;2023-09-19T06:20:44;5.10;;;3.05;;
64667;SDS011;51077;42.716;23.344;2023-09-19T06:23:11;5.85;;;3.05;;
64667;SDS011;51077;42.716;23.344;2023-09-19T06:25:36;6.27;;;3.10;;
64667;SDS011;51077;42.716;23.344;2023-09-19T06:28:02;8.17;;;4.10;;
64667;SDS011;51077;42.716;23.344;2023-09-19T06:30:30;5.63;;;3.60;;
64667;SDS011;51077;42.716;23.344;2023-09-19T06:32:56;5.97;;;2.67;;
64667;SDS011;51077;42.716;23.344;2023-09-19T06:35:22;9.73;;;2.83;;
64667;SDS011;51077;42.716;23.344;2023-09-19T06:37:48;4.33;;;2.83;;
64667;SDS011;51077;42.716;23.344;2023-09-19T06:40:14;5.00;;;3.33;;
64667;SDS011;51077;42.716;23.344;2023-09-19T06:42:41;5.65;;;2.90;;
64667;SDS011;51077;42.716;23.344;2023-09-19T06:45:08;5.00;;;3.28;;
64667;SDS011;51077;42.716;23.344;2023-09-19T06:47:36;4.63;;;2.97;;
64667;SDS011;51077;42.716;23.344;2023-09-19T06:50:02;6.73;;;2.43;;
64667;SDS011;51077;42.716;23.344;2023-09-19T06:52:28;4.73;;;2.90;;
64667;SDS011;51077;42.716;23.344;2023-09-19T06:54:53;5.13;;;2.80;;
64667;SDS011;51077;42.716;23.344;2023-09-19T06:57:19;8.23;;;2.93;;
64667;SDS011;51077;42.716;23.344;2023-09-19T06:59:45;4.23;;;2.70;;
64667;SDS011;51077;42.716;23.344;2023-09-19T07:02:11;7.18;;;2.95;;
64667;SDS011;51077;42.716;23.344;2023-09-19T07:04:36;4.73;;;2.87;;
64667;SDS011;51077;42.716;23.344;2023-09-19T07:07:01;5.33;;;2.73;;
64667;SDS011;51077;42.716;23.344;2023-09-19T07:09:27;5.70;;;2.80;;
64667;SDS011;51077;42.716;23.344;2023-09-19T07:11:53;5.07;;;3.00;;
64667;SDS011;51077;42.716;23.344;2023-09-19T07:14:19;4.18;;;2.60;;
64667;SDS011;51077;42.716;23.344;2023-09-19T07:16:44;5.83;;;2.77;;
64667;SDS011;51077;42.716;23.344;2023-09-19T07:19:10;6.00;;;3.30;;
64667;SDS011;51077;42.716;23.344;2023-09-19T07:21:36;4.65;;;2.70;;
64667;SDS011;51077;42.716;23.344;2023-09-19T07:24:03;5.70;;;2.60;;
64667;SDS011;51077;42.716;23.344;2023-09-19T07:26:28;5.57;;;3.30;;
64667;SDS011;51077;42.716;23.344;2023-09-19T07:28:54;7.67;;;2.90;;
64667;SDS011;51077;42.716;23.344;2023-09-19T07:31:21;6.93;;;2.83;;
64667;SDS011;51077;42.716;23.344;2023-09-19T07:33:47;6.85;;;3.03;;
64667;SDS011;51077;42.716;23.344;2023-09-19T07:36:13;9.93;;;3.20;;
64667;SDS011;51077;42.716;23.344;2023-09-19T07:38:39;5.80;;;3.20;;
64667;SDS011;51077;42.716;23.344;2023-09-19T07:41:06;5.80;;;3.08;;
64667;SDS011;51077;42.716;23.344;2023-09-19T07:43:33;9.52;;;3.00;;
64667;SDS011;51077;42.716;23.344;2023-09-19T07:46:02;4.93;;;2.70;;
64667;SDS011;51077;42.716;23.344;2023-09-19T07:48:29;5.35;;;2.60;;
64667;SDS011;51077;42.716;23.344;2023-09-19T07:50:54;5.10;;;3.30;;
64667;SDS011;51077;42.716;23.344;2023-09-19T07:53:20;3.83;;;2.50;;
64667;SDS011;51077;42.716;23.344;2023-09-19T07:55:45;3.73;;;2.77;;
64667;SDS011;51077;42.716;23.344;2023-09-19T07:58:13;6.55;;;2.92;;
64667;SDS011;51077;42.716;23.344;2023-09-19T08:00:38;5.30;;;2.70;;
64667;SDS011;51077;42.716;23.344;2023-09-19T08:03:04;4.10;;;2.70;;
64667;SDS011;51077;42.716;23.344;2023-09-19T08:05:30;4.13;;;2.63;;
64667;SDS011;51077;42.716;23.344;2023-09-19T08:07:58;5.90;;;3.15;;
64667;SDS011;51077;42.716;23.344;2023-09-19T08:10:24;7.30;;;3.57;;
64667;SDS011;51077;42.716;23.344;2023-09-19T08:12:52;6.55;;;3.20;;
64667;SDS011;51077;42.716;23.344;2023-09-19T08:15:23;6.72;;;2.63;;
64667;SDS011;51077;42.716;23.344;2023-09-19T08:17:48;4.83;;;2.90;;
64667;SDS011;51077;42.716;23.344;2023-09-19T08:20:14;4.47;;;2.47;;
64667;SDS011;51077;42.716;23.344;2023-09-19T08:22:47;5.07;;;2.25;;
64667;SDS011;51077;42.716;23.344;2023-09-19T08:25:15;6.45;;;2.67;;
64667;SDS011;51077;42.716;23.344;2023-09-19T08:27:43;5.72;;;2.58;;
64667;SDS011;51077;42.716;23.344;2023-09-19T08:30:12;6.10;;;2.63;;
64667;SDS011;51077;42.716;23.344;2023-09-19T08:32:39;7.57;;;2.80;;
64667;SDS011;51077;42.716;23.344;2023-09-19T08:35:07;4.70;;;2.85;;
64667;SDS011;51077;42.716;23.344;2023-09-19T08:37:34;4.60;;;2.58;;
64667;SDS011;51077;42.716;23.344;2023-09-19T08:39:59;5.77;;;3.40;;
64667;SDS011;51077;42.716;23.344;2023-09-19T08:42:25;6.73;;;2.83;;
64667;SDS011;51077;42.716;23.344;2023-09-19T08:44:50;4.47;;;2.50;;
64667;SDS011;51077;42.716;23.344;2023-09-19T08:47:15;7.07;;;2.60;;
64667;SDS011;51077;42.716;23.344;2023-09-19T08:52:28;4.57;;;2.70;;
64667;SDS011;51077;42.716;23.344;2023-09-19T08:55:02;5.45;;;2.80;;
64667;SDS011;51077;42.716;23.344;2023-09-19T08:57:35;4.97;;;2.97;;
64667;SDS011;51077;42.716;23.344;2023-09-19T09:00:04;7.40;;;2.78;;
64667;SDS011;51077;42.716;23.344;2023-09-19T09:02:37;5.13;;;3.03;;
64667;SDS011;51077;42.716;23.344;2023-09-19T09:05:10;5.53;;;2.78;;
64667;SDS011;51077;42.716;23.344;2023-09-19T09:07:40;5.38;;;2.55;;
64667;SDS011;51077;42.716;23.344;2023-09-19T09:10:06;6.28;;;2.88;;
64667;SDS011;51077;42.716;23.344;2023-09-19T09:12:32;6.68;;;2.75;;
64667;SDS011;51077;42.716;23.344;2023-09-19T09:15:01;5.45;;;2.95;;
64667;SDS011;51077;42.716;23.344;2023-09-19T09:17:28;4.82;;;2.40;;
64667;SDS011;51077;42.716;23.344;2023-09-19T09:19:54;4.38;;;2.60;;
64667;SDS011;51077;42.716;23.344;2023-09-19T09:22:20;4.70;;;2.97;;
64667;SDS011;51077;42.716;23.344;2023-09-19T09:24:56;5.90;;;2.50;;
64667;SDS011;51077;42.716;23.344;2023-09-19T09:27:30;4.57;;;2.88;;
64667;SDS011;51077;42.716;23.344;2023-09-19T09:29:56;4.00;;;2.80;;
64667;SDS011;51077;42.716;23.344;2023-09-19T09:34:55;5.03;;;2.65;;
64667;SDS011;51077;42.716;23.344;2023-09-19T09:37:21;5.45;;;2.70;;
64667;SDS011;51077;42.716;23.344;2023-09-19T09:39:53;4.07;;;2.30;;
64667;SDS011;51077;42.716;23.344;2023-09-19T09:45:33;4.47;;;2.60;;
64667;SDS011;51077;42.716;23.344;2023-09-19T09:47:57;5.78;;;2.80;;
64667;SDS011;51077;42.716;23.344;2023-09-19T09:50:25;6.18;;;2.80;;
64667;SDS011;51077;42.716;23.344;2023-09-19T09:53:19;6.07;;;3.00;;
64667;SDS011;51077;42.716;23.344;2023-09-19T09:58:32;7.00;;;2.80;;
64667;SDS011;51077;42.716;23.344;2023-09-19T10:00:59;7.90;;;3.20;;
64667;SDS011;51077;42.716;23.344;2023-09-19T10:03:31;4.72;;;2.60;;
64667;SDS011;51077;42.716;23.344;2023-09-19T10:05:58;4.35;;;3.05;;
64667;SDS011;51077;42.716;23.344;2023-09-19T10:08:33;3.78;;;2.80;;
64667;SDS011;51077;42.716;23.344;2023-09-19T10:11:00;5.78;;;2.92;;
64667;SDS011;51077;42.716;23.344;2023-09-19T10:13:32;5.15;;;2.95;;
64667;SDS011;51077;42.716;23.344;2023-09-19T10:16:03;6.57;;;3.33;;
64667;SDS011;51077;42.716;23.344;2023-09-19T10:18:31;5.82;;;2.30;;
64667;SDS011;51077;42.716;23.344;2023-09-19T10:21:01;4.47;;;2.72;;
64667;SDS011;51077;42.716;23.344;2023-09-19T10:23:29;7.65;;;2.83;;
64667;SDS011;51077;42.716;23.344;2023-09-19T10:25:59;4.15;;;2.60;;
64667;SDS011;51077;42.716;23.344;2023-09-19T10:28:27;9.25;;;2.75;;
64667;SDS011;51077;42.716;23.344;2023-09-19T10:30:54;6.30;;;2.88;;
64667;SDS011;51077;42.716;23.344;2023-09-19T10:33:22;6.43;;;2.53;;
64667;SDS011;51077;42.716;23.344;2023-09-19T10:35:55;8.25;;;3.05;;
64667;SDS011;51077;42.716;23.344;2023-09-19T10:38:25;4.57;;;2.70;;
64667;SDS011;51077;42.716;23.344;2023-09-19T10:40:54;4.70;;;2.80;;
64667;SDS011;51077;42.716;23.344;2023-09-19T10:43:30;4.70;;;2.72;;
64667;SDS011;51077;42.716;23.344;2023-09-19T10:45:57;3.78;;;2.40;;
64667;SDS011;51077;42.716;23.344;2023-09-19T10:48:29;4.43;;;3.13;;
64667;SDS011;51077;42.716;23.344;2023-09-19T10:53:29;4.65;;;2.67;;
64667;SDS011;51077;42.716;23.344;2023-09-19T10:56:07;4.43;;;3.20;;
64667;SDS011;51077;42.716;23.344;2023-09-19T10:58:42;8.93;;;3.55;;
64667;SDS011;51077;42.716;23.344;2023-09-19T11:01:09;5.18;;;2.85;;
64667;SDS011;51077;42.716;23.344;2023-09-19T11:03:43;4.68;;;2.85;;
64667;SDS011;51077;42.716;23.344;2023-09-19T11:06:13;5.03;;;2.80;;
64667;SDS011;51077;42.716;23.344;2023-09-19T11:08:50;8.45;;;3.60;;
64667;SDS011;51077;42.716;23.344;2023-09-19T11:14:13;5.18;;;3.08;;
64667;SDS011;51077;42.716;23.344;2023-09-19T11:30:31;6.63;;;3.55;;
64667;SDS011;51077;42.716;23.344;2023-09-19T11:39:01;4.32;;;2.70;;
64667;SDS011;51077;42.716;23.344;2023-09-19T11:41:41;7.07;;;3.15;;
64667;SDS011;51077;42.716;23.344;2023-09-19T11:49:16;5.53;;;3.20;;
64667;SDS011;51077;42.716;23.344;2023-09-19T11:51:48;11.23;;;3.20;;
64667;SDS011;51077;42.716;23.344;2023-09-19T11:54:19;7.80;;;3.10;;
64667;SDS011;51077;42.716;23.344;2023-09-19T11:56:50;7.03;;;3.78;;
64667;SDS011;51077;42.716;23.344;2023-09-19T11:59:21;7.20;;;3.15;;
64667;SDS011;51077;42.716;23.344;2023-09-19T12:01:54;6.80;;;4.47;;
64667;SDS011;51077;42.716;23.344;2023-09-19T12:04:33;5.70;;;3.25;;
64667;SDS011;51077;42.716;23.344;2023-09-19T12:07:02;6.25;;;3.30;;
64667;SDS011;51077;42.716;23.344;2023-09-19T12:09:41;4.63;;;2.83;;
64667;SDS011;51077;42.716;23.344;2023-09-19T12:12:22;5.88;;;3.38;;
64667;SDS011;51077;42.716;23.344;2023-09-19T12:14:51;9.52;;;3.33;;
64667;SDS011;51077;42.716;23.344;2023-09-19T12:17:17;8.45;;;3.53;;
64667;SDS011;51077;42.716;23.344;2023-09-19T12:19:53;4.47;;;3.23;;
64667;SDS011;51077;42.716;23.344;2023-09-19T12:22:19;6.63;;;3.70;;
64667;SDS011;51077;42.716;23.344;2023-09-19T12:24:45;5.43;;;2.97;;
64667;SDS011;51077;42.716;23.344;2023-09-19T12:27:12;5.27;;;3.30;;
64667;SDS011;51077;42.716;23.344;2023-09-19T12:29:48;7.73;;;3.17;;
64667;SDS011;51077;42.716;23.344;2023-09-19T12:32:14;5.03;;;2.93;;
64667;SDS011;51077;42.716;23.344;2023-09-19T12:34:51;5.90;;;3.07;;
64667;SDS011;51077;42.716;23.344;2023-09-19T12:37:19;4.47;;;2.88;;
64667;SDS011;51077;42.716;23.344;2023-09-19T12:39:51;4.30;;;3.20;;
64667;SDS011;51077;42.716;23.344;2023-09-19T12:44:49;6.33;;;3.37;;
64667;SDS011;51077;42.716;23.344;2023-09-19T12:47:27;7.67;;;3.20;;
64667;SDS011;51077;42.716;23.344;2023-09-19T12:50:12;7.93;;;3.23;;
64667;SDS011;51077;42.716;23.344;2023-09-19T12:52:51;5.03;;;3.17;;
64667;SDS011;51077;42.716;23.344;2023-09-19T12:55:28;6.07;;;2.90;;
64667;SDS011;51077;42.716;23.344;2023-09-19T13:00:31;6.60;;;3.30;;
64667;SDS011;51077;42.716;23.344;2023-09-19T13:05:47;6.67;;;3.17;;
64667;SDS011;51077;42.716;23.344;2023-09-19T13:08:34;4.70;;;3.03;;
64667;SDS011;51077;42.716;23.344;2023-09-19T13:11:16;5.07;;;3.27;;
64667;SDS011;51077;42.716;23.344;2023-09-19T13:13:44;6.93;;;3.10;;
64667;SDS011;51077;42.716;23.344;2023-09-19T13:16:14;5.60;;;3.60;;
64667;SDS011;51077;42.716;23.344;2023-09-19T13:18:45;5.00;;;3.47;;
64667;SDS011;51077;42.716;23.344;2023-09-19T13:21:34;6.63;;;3.17;;
64667;SDS011;51077;42.716;23.344;2023-09-19T13:24:18;7.13;;;3.40;;
64667;SDS011;51077;42.716;23.344;2023-09-19T13:26:45;5.63;;;3.13;;
64667;SDS011;51077;42.716;23.344;2023-09-19T13:29:10;7.73;;;3.70;;
64667;SDS011;51077;42.716;23.344;2023-09-19T13:31:36;5.83;;;3.60;;
64667;SDS011;51077;42.716;23.344;2023-09-19T13:34:06;4.93;;;3.63;;
64667;SDS011;51077;42.716;23.344;2023-09-19T13:36:31;9.83;;;3.40;;
64667;SDS011;51077;42.716;23.344;2023-09-19T13:38:57;5.67;;;3.90;;
64667;SDS011;51077;42.716;23.344;2023-09-19T13:41:24;6.00;;;3.60;;
64667;SDS011;51077;42.716;23.344;2023-09-19T13:43:49;5.57;;;3.60;;
64667;SDS011;51077;42.716;23.344;2023-09-19T13:46:14;6.17;;;3.67;;
64667;SDS011;51077;42.716;23.344;2023-09-19T13:48:41;8.93;;;3.47;;
64667;SDS011;51077;42.716;23.344;2023-09-19T13:51:07;6.00;;;3.47;;
64667;SDS011;51077;42.716;23.344;2023-09-19T13:53:32;6.60;;;3.93;;
64667;SDS011;51077;42.716;23.344;2023-09-19T13:55:58;5.90;;;3.30;;
64667;SDS011;51077;42.716;23.344;2023-09-19T13:58:23;6.50;;;3.70;;
64667;SDS011;51077;42.716;23.344;2023-09-19T14:00:49;8.73;;;3.67;;
64667;SDS011;51077;42.716;23.344;2023-09-19T14:03:15;7.18;;;4.00;;
64667;SDS011;51077;42.716;23.344;2023-09-19T14:05:41;6.37;;;4.00;;
64667;SDS011;51077;42.716;23.344;2023-09-19T14:08:07;6.55;;;3.67;;
64667;SDS011;51077;42.716;23.344;2023-09-19T14:10:33;8.23;;;3.80;;
64667;SDS011;51077;42.716;23.344;2023-09-19T14:12:59;4.18;;;3.55;;
64667;SDS011;51077;42.716;23.344;2023-09-19T14:15:26;6.30;;;3.40;;
64667;SDS011;51077;42.716;23.344;2023-09-19T14:17:58;5.03;;;3.67;;
64667;SDS011;51077;42.716;23.344;2023-09-19T14:20:25;4.63;;;3.47;;
64667;SDS011;51077;42.716;23.344;2023-09-19T14:22:51;6.70;;;3.78;;
64667;SDS011;51077;42.716;23.344;2023-09-19T14:25:18;5.60;;;3.80;;
64667;SDS011;51077;42.716;23.344;2023-09-19T14:27:43;5.23;;;3.60;;
64667;SDS011;51077;42.716;23.344;2023-09-19T14:30:08;5.80;;;3.57;;
64667;SDS011;51077;42.716;23.344;2023-09-19T14:32:34;8.77;;;3.70;;
64667;SDS011;51077;42.716;23.344;2023-09-19T14:35:01;5.35;;;3.88;;
64667;SDS011;51077;42.716;23.344;2023-09-19T14:37:27;5.90;;;4.10;;
64667;SDS011;51077;42.716;23.344;2023-09-19T14:39:53;8.60;;;4.00;;
64667;SDS011;51077;42.716;23.344;2023-09-19T14:42:19;7.87;;;4.10;;
64667;SDS011;51077;42.716;23.344;2023-09-19T14:44:45;6.50;;;3.47;;
64667;SDS011;51077;42.716;23.344;2023-09-19T14:47:12;7.75;;;4.07;;
64667;SDS011;51077;42.716;23.344;2023-09-19T14:49:38;5.20;;;3.90;;
64667;SDS011;51077;42.716;23.344;2023-09-19T14:52:07;8.33;;;3.90;;
64667;SDS011;51077;42.716;23.344;2023-09-19T14:54:33;7.95;;;3.75;;
64667;SDS011;51077;42.716;23.344;2023-09-19T14:56:58;6.97;;;3.70;;
64667;SDS011;51077;42.716;23.344;2023-09-19T14:59:32;7.35;;;3.55;;
64667;SDS011;51077;42.716;23.344;2023-09-19T15:01:57;6.90;;;3.55;;
64667;SDS011;51077;42.716;23.344;2023-09-19T15:04:23;6.87;;;3.80;;
64667;SDS011;51077;42.716;23.344;2023-09-19T15:06:49;6.20;;;3.70;;
64667;SDS011;51077;42.716;23.344;2023-09-19T15:09:16;8.13;;;3.95;;
64667;SDS011;51077;42.716;23.344;2023-09-19T15:11:43;6.95;;;3.83;;
64667;SDS011;51077;42.716;23.344;2023-09-19T15:14:09;6.70;;;3.73;;
64667;SDS011;51077;42.716;23.344;2023-09-19T15:16:34;6.70;;;3.93;;
64667;SDS011;51077;42.716;23.344;2023-09-19T15:19:00;8.48;;;4.18;;
64667;SDS011;51077;42.716;23.344;2023-09-19T15:21:26;6.53;;;3.97;;
64667;SDS011;51077;42.716;23.344;2023-09-19T15:23:51;9.60;;;3.47;;
64667;SDS011;51077;42.716;23.344;2023-09-19T15:26:17;6.10;;;4.20;;
64667;SDS011;51077;42.716;23.344;2023-09-19T15:28:45;5.80;;;4.25;;
64667;SDS011;51077;42.716;23.344;2023-09-19T15:31:11;6.63;;;4.47;;
64667;SDS011;51077;42.716;23.344;2023-09-19T15:33:38;7.72;;;4.13;;
64667;SDS011;51077;42.716;23.344;2023-09-19T15:36:04;8.13;;;4.17;;
64667;SDS011;51077;42.716;23.344;2023-09-19T15:38:30;8.60;;;4.60;;
64667;SDS011;51077;42.716;23.344;2023-09-19T15:40:57;9.10;;;4.60;;
64667;SDS011;51077;42.716;23.344;2023-09-19T15:43:23;6.97;;;4.57;;
64667;SDS011;51077;42.716;23.344;2023-09-19T15:45:49;11.17;;;4.50;;
64667;SDS011;51077;42.716;23.344;2023-09-19T15:48:15;8.75;;;4.50;;
64667;SDS011;51077;42.716;23.344;2023-09-19T15:50:41;10.95;;;4.32;;
64667;SDS011;51077;42.716;23.344;2023-09-19T15:53:07;6.43;;;5.30;;